createdAt,value
2022-12-11T00:00:22.961Z,40.13
2022-12-11T00:02:49.539Z,40.22
2022-12-11T00:05:16.110Z,40.14
2022-12-11T00:07:42.868Z,40.14
2022-12-11T00:10:09.505Z,40.11
2022-12-11T00:12:36.075Z,40.16
2022-12-11T00:15:02.692Z,40.13
2022-12-11T00:17:29.095Z,40.12
2022-12-11T00:19:55.641Z,40.05
2022-12-11T00:22:22.079Z,40.09
2022-12-11T00:24:48.589Z,40.16
2022-12-11T00:27:15.070Z,40.21
2022-12-11T00:29:41.477Z,40.28
2022-12-11T00:32:08.013Z,40.32
2022-12-11T00:34:34.527Z,40.27
2022-12-11T00:37:00.939Z,40.32
2022-12-11T00:39:27.566Z,40.46
2022-12-11T00:41:54.040Z,40.42
2022-12-11T00:44:20.578Z,40.39
2022-12-11T00:46:47.137Z,40.24
2022-12-11T00:49:13.581Z,40.46
2022-12-11T00:51:40.009Z,40.50
2022-12-11T00:54:06.731Z,40.54
2022-12-11T00:56:33.144Z,40.50
2022-12-11T00:58:59.640Z,40.27
2022-12-11T01:01:26.274Z,40.44
2022-12-11T01:03:53.524Z,40.37
2022-12-11T01:06:21.839Z,40.43
2022-12-11T01:08:48.346Z,40.51
2022-12-11T01:11:16.041Z,40.52
2022-12-11T01:13:42.613Z,40.46
2022-12-11T01:16:14.182Z,40.51
2022-12-11T01:18:40.669Z,40.47
2022-12-11T01:21:07.947Z,40.37
2022-12-11T01:23:34.887Z,40.35
2022-12-11T01:26:11.722Z,40.41
2022-12-11T01:28:38.741Z,40.26
2022-12-11T01:31:09.083Z,40.27
2022-12-11T01:33:35.594Z,40.28
2022-12-11T01:36:02.036Z,40.36
2022-12-11T01:38:28.456Z,40.24
2022-12-11T01:40:54.909Z,40.21
2022-12-11T01:43:21.351Z,40.29
2022-12-11T01:45:48.300Z,40.63
2022-12-11T01:48:18.634Z,40.81
2022-12-11T01:50:52.401Z,40.76
2022-12-11T01:53:33.478Z,40.74
2022-12-11T01:56:00.212Z,40.73
2022-12-11T01:58:29.560Z,40.79
2022-12-11T02:00:57.113Z,40.84
2022-12-11T02:03:23.661Z,40.69
2022-12-11T02:05:50.444Z,40.80
2022-12-11T02:08:17.137Z,40.88
2022-12-11T02:10:52.913Z,40.96
2022-12-11T02:13:23.769Z,40.89
2022-12-11T02:15:54.976Z,40.96
2022-12-11T02:18:24.270Z,40.86
2022-12-11T02:20:50.623Z,40.87
2022-12-11T02:23:26.058Z,40.84
2022-12-11T02:26:11.127Z,40.85
2022-12-11T02:28:40.516Z,40.78
2022-12-11T02:31:17.085Z,40.81
2022-12-11T02:33:43.720Z,40.85
2022-12-11T02:36:10.362Z,40.83
2022-12-11T02:38:39.019Z,40.70
2022-12-11T02:41:07.398Z,40.85
2022-12-11T02:43:34.288Z,40.75
2022-12-11T02:46:03.141Z,40.83
2022-12-11T02:48:30.534Z,40.82
2022-12-11T02:50:58.780Z,40.70
2022-12-11T02:53:28.110Z,40.71
2022-12-11T02:56:02.038Z,40.63
2022-12-11T02:58:31.196Z,40.69
2022-12-11T03:00:57.797Z,40.84
2022-12-11T03:03:24.654Z,40.87
2022-12-11T03:05:51.030Z,40.83
2022-12-11T03:08:18.633Z,40.94
2022-12-11T03:10:45.803Z,40.87
2022-12-11T03:13:13.508Z,40.84
2022-12-11T03:16:02.635Z,40.81
2022-12-11T03:18:32.145Z,40.81
2022-12-11T03:21:06.070Z,40.91
2022-12-11T03:23:34.989Z,41.06
2022-12-11T03:26:03.471Z,40.93
2022-12-11T03:28:45.535Z,40.96
2022-12-11T03:31:21.851Z,40.85
2022-12-11T03:33:50.336Z,41.01
2022-12-11T03:36:20.469Z,40.82
2022-12-11T03:38:50.491Z,40.89
2022-12-11T03:41:18.560Z,40.88
2022-12-11T03:43:45.747Z,40.84
2022-12-11T03:46:14.320Z,40.81
2022-12-11T03:48:42.451Z,40.86
2022-12-11T03:51:09.445Z,40.86
2022-12-11T03:53:36.548Z,40.71
2022-12-11T03:56:04.549Z,40.63
2022-12-11T03:58:31.232Z,40.66
2022-12-11T04:00:57.827Z,40.64
2022-12-11T04:03:24.559Z,40.72
2022-12-11T04:05:52.251Z,40.67
2022-12-11T04:08:20.677Z,40.70
2022-12-11T04:10:47.277Z,40.62
2022-12-11T04:13:13.975Z,40.66
2022-12-11T04:15:40.898Z,40.59
2022-12-11T04:18:26.350Z,40.74
2022-12-11T04:21:14.790Z,40.66
2022-12-11T04:23:59.591Z,40.76
2022-12-11T04:26:26.158Z,40.75
2022-12-11T04:28:52.561Z,40.57
2022-12-11T04:31:20.299Z,40.47
2022-12-11T04:33:47.351Z,40.41
2022-12-11T04:36:14.305Z,40.40
2022-12-11T04:38:40.782Z,40.37
2022-12-11T04:41:11.390Z,40.46
2022-12-11T04:43:37.976Z,40.51
2022-12-11T04:46:06.137Z,40.37
2022-12-11T04:48:32.966Z,40.18
2022-12-11T04:50:59.720Z,40.21
2022-12-11T04:53:26.513Z,40.22
2022-12-11T04:55:53.125Z,40.25
2022-12-11T04:58:19.573Z,40.18
2022-12-11T05:00:46.151Z,40.50
2022-12-11T05:03:12.966Z,40.51
2022-12-11T05:05:40.002Z,40.55
2022-12-11T05:08:06.470Z,40.43
2022-12-11T05:10:32.990Z,40.58
2022-12-11T05:12:59.478Z,40.34
2022-12-11T05:15:25.946Z,40.43
2022-12-11T05:17:52.484Z,40.55
2022-12-11T05:20:18.905Z,40.60
2022-12-11T05:22:45.350Z,40.49
2022-12-11T05:25:11.925Z,40.40
2022-12-11T05:27:38.559Z,40.52
2022-12-11T05:30:05.286Z,40.59
2022-12-11T05:32:31.710Z,40.51
2022-12-11T05:34:58.126Z,40.50
2022-12-11T05:37:24.552Z,40.36
2022-12-11T05:39:50.954Z,40.45
2022-12-11T05:42:17.454Z,40.45
2022-12-11T05:44:43.892Z,40.51
2022-12-11T05:47:11.042Z,40.61
2022-12-11T05:49:37.508Z,40.40
2022-12-11T05:52:04.012Z,40.37
2022-12-11T05:54:30.489Z,40.32
2022-12-11T05:56:56.970Z,40.27
2022-12-11T05:59:23.400Z,40.23
2022-12-11T06:01:49.911Z,40.28
2022-12-11T06:04:16.362Z,40.26
2022-12-11T06:06:43.880Z,40.20
2022-12-11T06:09:14.246Z,40.21
2022-12-11T06:11:40.734Z,40.20
2022-12-11T06:14:07.225Z,40.13
2022-12-11T06:16:34.112Z,40.20
2022-12-11T06:19:00.754Z,40.04
2022-12-11T06:21:28.746Z,40.02
2022-12-11T06:23:56.077Z,39.94
2022-12-11T06:26:22.680Z,40.02
2022-12-11T06:28:49.659Z,40.03
2022-12-11T06:31:17.134Z,39.92
2022-12-11T06:33:43.689Z,40.04
2022-12-11T06:36:20.326Z,39.92
2022-12-11T06:38:47.762Z,39.92
2022-12-11T06:41:14.848Z,40.00
2022-12-11T06:43:42.181Z,40.04
2022-12-11T06:46:09.939Z,40.08
2022-12-11T06:48:36.494Z,39.89
2022-12-11T06:51:09.299Z,39.84
2022-12-11T06:53:35.818Z,40.00
2022-12-11T06:56:06.404Z,40.05
2022-12-11T06:58:34.139Z,40.07
2022-12-11T07:01:00.655Z,39.93
2022-12-11T07:03:27.153Z,39.96
2022-12-11T07:05:53.556Z,39.81
2022-12-11T07:08:20.156Z,39.88
2022-12-11T07:10:46.621Z,39.77
2022-12-11T07:13:13.125Z,39.91
2022-12-11T07:15:40.597Z,39.80
2022-12-11T07:18:07.163Z,39.53
2022-12-11T07:20:33.581Z,39.65
2022-12-11T07:23:00.244Z,39.64
2022-12-11T07:25:26.767Z,39.73
2022-12-11T07:27:53.165Z,39.65
2022-12-11T07:30:19.690Z,39.59
2022-12-11T07:32:46.182Z,40.00
2022-12-11T07:35:12.875Z,39.73
2022-12-11T07:37:42.571Z,39.64
2022-12-11T07:40:09.804Z,39.67
2022-12-11T07:42:38.345Z,39.78
2022-12-11T07:45:07.206Z,39.75
2022-12-11T07:47:33.949Z,40.12
2022-12-11T07:50:00.420Z,39.84
2022-12-11T07:52:26.892Z,39.94
2022-12-11T07:54:53.365Z,39.93
2022-12-11T07:57:19.801Z,39.99
2022-12-11T07:59:46.777Z,39.90
2022-12-11T08:02:13.259Z,40.02
2022-12-11T08:04:39.792Z,39.89
2022-12-11T08:07:06.297Z,39.91
2022-12-11T08:09:32.762Z,39.89
2022-12-11T08:11:59.233Z,39.84
2022-12-11T08:14:25.633Z,39.82
2022-12-11T08:16:52.180Z,39.70
2022-12-11T08:19:18.604Z,39.70
2022-12-11T08:21:45.137Z,39.75
2022-12-11T08:24:11.586Z,39.82
2022-12-11T08:26:38.058Z,39.84
2022-12-11T08:29:04.443Z,39.91
2022-12-11T08:31:30.974Z,40.16
2022-12-11T08:33:57.792Z,39.90
2022-12-11T08:36:25.208Z,39.98
2022-12-11T08:38:52.094Z,39.93
2022-12-11T08:41:20.095Z,39.96
2022-12-11T08:43:46.822Z,40.20
2022-12-11T08:46:14.331Z,40.20
2022-12-11T08:48:41.927Z,40.20
2022-12-11T08:51:10.544Z,40.15
2022-12-11T08:53:37.053Z,40.15
2022-12-11T08:56:23.677Z,40.13
2022-12-11T08:58:50.794Z,40.12
2022-12-11T09:01:18.998Z,40.49
2022-12-11T09:03:45.493Z,41.00
2022-12-11T09:06:13.143Z,41.31
2022-12-11T09:08:40.065Z,41.42
2022-12-11T09:11:08.264Z,41.65
2022-12-11T09:13:34.803Z,42.17
2022-12-11T09:16:03.592Z,41.34
2022-12-11T09:18:30.151Z,34.94
2022-12-11T09:21:00.809Z,34.12
2022-12-11T09:23:27.446Z,35.84
2022-12-11T09:25:53.993Z,37.32
2022-12-11T09:28:20.698Z,38.15
2022-12-11T09:30:47.272Z,38.65
2022-12-11T09:33:13.866Z,38.86
2022-12-11T09:35:40.483Z,39.07
2022-12-11T09:38:06.898Z,39.15
2022-12-11T09:40:33.442Z,39.32
2022-12-11T09:43:20.103Z,39.43
2022-12-11T09:45:46.734Z,39.48
2022-12-11T09:48:15.449Z,39.51
2022-12-11T09:50:42.175Z,39.67
2022-12-11T09:53:33.966Z,39.77
2022-12-11T09:56:00.781Z,39.77
2022-12-11T09:58:42.656Z,39.91
2022-12-11T10:01:12.169Z,39.88
2022-12-11T10:03:51.715Z,39.97
2022-12-11T10:06:18.330Z,39.99
2022-12-11T10:08:50.762Z,40.12
2022-12-11T10:11:37.726Z,40.14
2022-12-11T10:14:18.592Z,40.12
2022-12-11T10:16:51.273Z,40.22
2022-12-11T10:19:24.465Z,40.30
2022-12-11T10:21:51.930Z,40.11
2022-12-11T10:25:10.197Z,40.27
2022-12-11T10:27:32.932Z,40.37
2022-12-11T10:30:08.831Z,40.38
2022-12-11T10:32:50.638Z,40.45
2022-12-11T10:35:25.490Z,40.46
2022-12-11T10:37:55.592Z,40.46
2022-12-11T10:40:23.670Z,40.72
2022-12-11T10:42:54.008Z,41.02
2022-12-11T10:45:20.582Z,41.18
2022-12-11T10:47:48.084Z,41.39
2022-12-11T10:50:28.000Z,41.57
2022-12-11T10:52:55.713Z,41.82
2022-12-11T10:55:24.599Z,42.07
2022-12-11T10:57:55.877Z,42.30
2022-12-11T11:00:39.661Z,42.46
2022-12-11T11:03:07.834Z,42.54
2022-12-11T11:05:35.720Z,42.63
2022-12-11T11:08:11.510Z,42.85
2022-12-11T11:10:38.180Z,42.87
2022-12-11T11:13:05.282Z,42.88
2022-12-11T11:15:31.833Z,43.03
2022-12-11T11:18:09.646Z,43.08
2022-12-11T11:20:36.103Z,43.09
2022-12-11T11:23:04.281Z,42.87
2022-12-11T11:25:32.603Z,43.00
2022-12-11T11:28:03.673Z,43.22
2022-12-11T11:30:31.585Z,42.93
2022-12-11T11:33:01.495Z,42.84
2022-12-11T11:35:31.679Z,42.98
2022-12-11T11:38:02.417Z,43.06
2022-12-11T11:40:37.097Z,42.85
2022-12-11T11:43:15.869Z,42.84
2022-12-11T11:45:53.961Z,42.81
2022-12-11T11:48:38.767Z,42.93
2022-12-11T11:51:14.809Z,42.95
2022-12-11T11:53:41.798Z,42.94
2022-12-11T11:56:27.994Z,42.89
2022-12-11T11:58:59.289Z,42.87
2022-12-11T12:01:26.514Z,42.93
2022-12-11T12:03:53.069Z,42.93
2022-12-11T12:06:31.441Z,43.03
2022-12-11T12:09:06.914Z,42.92
2022-12-11T12:11:39.119Z,42.95
2022-12-11T12:14:51.100Z,43.05
2022-12-11T12:17:31.325Z,42.93
2022-12-11T12:20:16.366Z,42.91
2022-12-11T12:22:46.218Z,42.93
2022-12-11T12:25:31.385Z,42.94
2022-12-11T12:28:08.697Z,42.99
2022-12-11T12:30:44.727Z,42.93
2022-12-11T12:33:18.499Z,42.96
2022-12-11T12:35:51.963Z,42.90
2022-12-11T12:38:18.445Z,42.90
2022-12-11T12:40:56.838Z,42.91
2022-12-11T12:43:32.627Z,42.95
2022-12-11T12:46:05.180Z,42.96
2022-12-11T12:48:32.649Z,43.11
2022-12-11T12:50:59.359Z,43.08
2022-12-11T12:53:28.781Z,43.07
2022-12-11T12:55:55.540Z,43.06
2022-12-11T12:58:25.072Z,43.07
2022-12-11T13:00:51.510Z,42.98
2022-12-11T13:03:22.558Z,42.88
2022-12-11T13:06:04.301Z,42.97
2022-12-11T13:08:34.699Z,43.02
2022-12-11T13:11:03.682Z,42.96
2022-12-11T13:13:36.278Z,43.03
2022-12-11T13:16:17.994Z,43.03
2022-12-11T13:18:45.603Z,43.09
2022-12-11T13:21:30.648Z,43.01
2022-12-11T13:24:15.785Z,43.09
2022-12-11T13:26:42.710Z,43.07
2022-12-11T13:29:27.893Z,43.08
2022-12-11T13:32:17.565Z,43.10
2022-12-11T13:34:55.446Z,43.09
2022-12-11T13:37:42.197Z,43.03
2022-12-11T13:40:15.085Z,43.10
2022-12-11T13:42:49.289Z,43.03
2022-12-11T13:45:28.229Z,43.13
2022-12-11T13:47:58.530Z,43.03
2022-12-11T13:50:28.421Z,43.11
2022-12-11T13:53:04.947Z,43.25
2022-12-11T13:55:33.011Z,43.17
2022-12-11T13:57:59.737Z,43.15
2022-12-11T14:00:28.129Z,43.10
2022-12-11T14:02:56.215Z,43.23
2022-12-11T14:05:22.643Z,43.19
2022-12-11T14:07:50.828Z,43.12
2022-12-11T14:10:27.556Z,43.26
2022-12-11T14:12:57.570Z,43.15
2022-12-11T14:15:23.983Z,43.20
2022-12-11T14:17:52.116Z,43.30
2022-12-11T14:20:20.457Z,43.08
2022-12-11T14:22:46.977Z,43.14
2022-12-11T14:25:24.909Z,43.20
2022-12-11T14:27:54.957Z,43.23
2022-12-11T14:30:23.002Z,43.28
2022-12-11T14:32:50.062Z,43.20
2022-12-11T14:35:34.254Z,43.13
2022-12-11T14:38:09.089Z,43.27
2022-12-11T14:40:38.319Z,43.24
2022-12-11T14:43:10.186Z,43.22
2022-12-11T14:45:42.661Z,43.28
2022-12-11T14:48:22.189Z,43.40
2022-12-11T14:50:50.985Z,43.15
2022-12-11T14:53:26.100Z,43.34
2022-12-11T14:55:53.092Z,43.24
2022-12-11T14:58:23.800Z,43.34
2022-12-11T15:00:57.442Z,43.15
2022-12-11T15:03:24.529Z,43.27
2022-12-11T15:05:55.333Z,43.25
2022-12-11T15:08:26.196Z,43.33
2022-12-11T15:11:04.120Z,43.27
2022-12-11T15:13:30.983Z,43.21
2022-12-11T15:15:57.571Z,43.28
2022-12-11T15:18:29.112Z,43.33
2022-12-11T15:20:57.224Z,43.27
2022-12-11T15:23:23.759Z,43.31
2022-12-11T15:25:51.955Z,43.14
2022-12-11T15:28:29.694Z,43.13
2022-12-11T15:30:57.785Z,43.14
2022-12-11T15:33:24.294Z,43.14
2022-12-11T15:35:54.827Z,43.10
2022-12-11T15:38:34.173Z,43.17
2022-12-11T15:41:01.571Z,43.13
2022-12-11T15:43:28.815Z,43.27
2022-12-11T15:45:55.313Z,43.25
2022-12-11T15:48:21.826Z,43.28
2022-12-11T15:50:48.359Z,43.53
2022-12-11T15:53:14.825Z,43.48
2022-12-11T15:55:41.305Z,43.51
2022-12-11T15:58:09.470Z,43.49
2022-12-11T16:00:36.066Z,43.54
2022-12-11T16:03:02.649Z,43.57
2022-12-11T16:05:29.199Z,43.84
2022-12-11T16:07:59.663Z,43.68
2022-12-11T16:10:26.911Z,43.75
2022-12-11T16:12:53.398Z,43.75
2022-12-11T16:15:23.478Z,43.92
2022-12-11T16:17:55.775Z,43.78
2022-12-11T16:20:22.291Z,43.85
2022-12-11T16:22:49.269Z,43.81
2022-12-11T16:25:15.685Z,43.78
2022-12-11T16:27:42.175Z,43.72
2022-12-11T16:30:10.653Z,43.69
2022-12-11T16:32:37.164Z,43.83
2022-12-11T16:35:03.695Z,43.79
2022-12-11T16:37:30.182Z,43.56
2022-12-11T16:39:58.879Z,43.64
2022-12-11T16:42:25.398Z,43.56
2022-12-11T16:44:51.962Z,43.54
2022-12-11T16:47:18.410Z,43.63
2022-12-11T16:49:45.255Z,43.54
2022-12-11T16:52:11.737Z,43.59
2022-12-11T16:54:38.279Z,43.54
2022-12-11T16:57:04.749Z,43.53
2022-12-11T16:59:36.853Z,43.46
2022-12-11T17:02:04.399Z,43.42
2022-12-11T17:04:30.805Z,43.54
2022-12-11T17:06:57.327Z,43.45
2022-12-11T17:09:23.821Z,43.52
2022-12-11T17:11:50.272Z,43.49
2022-12-11T17:14:16.722Z,43.34
2022-12-11T17:16:43.201Z,43.54
2022-12-11T17:19:09.946Z,43.53
2022-12-11T17:21:36.422Z,43.60
2022-12-11T17:24:03.013Z,43.44
2022-12-11T17:26:29.426Z,43.52
2022-12-11T17:28:59.149Z,43.39
2022-12-11T17:31:25.609Z,43.51
2022-12-11T17:33:54.001Z,43.41
2022-12-11T17:36:21.640Z,43.47
2022-12-11T17:38:48.481Z,43.52
2022-12-11T17:41:20.300Z,43.44
2022-12-11T17:43:51.390Z,43.53
2022-12-11T17:46:18.421Z,43.39
2022-12-11T17:48:45.074Z,43.42
2022-12-11T17:51:13.038Z,43.37
2022-12-11T17:53:40.126Z,43.32
2022-12-11T17:56:07.581Z,43.29
2022-12-11T17:58:34.409Z,43.34
2022-12-11T18:01:05.667Z,43.35
2022-12-11T18:03:32.267Z,43.30
2022-12-11T18:06:02.598Z,43.27
2022-12-11T18:08:30.148Z,43.29
2022-12-11T18:10:56.970Z,43.30
2022-12-11T18:13:24.139Z,43.29
2022-12-11T18:16:00.669Z,43.23
2022-12-11T18:18:27.284Z,43.18
2022-12-11T18:20:53.727Z,43.12
2022-12-11T18:23:20.269Z,43.30
2022-12-11T18:25:46.761Z,43.19
2022-12-11T18:28:13.380Z,43.24
2022-12-11T18:30:39.945Z,43.18
2022-12-11T18:33:06.470Z,43.21
2022-12-11T18:35:33.058Z,43.34
2022-12-11T18:37:59.585Z,43.21
2022-12-11T18:40:26.169Z,43.17
2022-12-11T18:42:52.720Z,43.24
2022-12-11T18:45:19.335Z,43.28
2022-12-11T18:47:47.182Z,43.31
2022-12-11T18:50:14.292Z,43.27
2022-12-11T18:52:40.890Z,43.19
2022-12-11T18:55:07.532Z,43.20
2022-12-11T18:57:34.054Z,43.13
2022-12-11T19:00:07.193Z,43.28
2022-12-11T19:02:34.761Z,43.12
2022-12-11T19:05:01.278Z,43.03
2022-12-11T19:07:27.872Z,43.31
2022-12-11T19:09:54.303Z,43.26
2022-12-11T19:12:20.774Z,43.24
2022-12-11T19:14:47.251Z,43.26
2022-12-11T19:17:13.816Z,43.32
2022-12-11T19:19:40.714Z,43.24
2022-12-11T19:22:07.237Z,43.28
2022-12-11T19:24:36.682Z,43.30
2022-12-11T19:27:07.350Z,43.18
2022-12-11T19:29:36.666Z,43.16
2022-12-11T19:32:03.726Z,43.24
2022-12-11T19:34:39.570Z,43.28
2022-12-11T19:37:06.079Z,43.22
2022-12-11T19:39:32.553Z,43.20
2022-12-11T19:41:59.062Z,43.33
2022-12-11T19:44:25.633Z,43.24
2022-12-11T19:46:52.200Z,43.34
2022-12-11T19:49:18.657Z,43.30
2022-12-11T19:51:45.396Z,43.33
2022-12-11T19:54:13.017Z,43.32
2022-12-11T19:56:39.563Z,43.28
2022-12-11T19:59:07.193Z,43.20
2022-12-11T20:01:34.796Z,43.26
2022-12-11T20:04:02.778Z,43.26
2022-12-11T20:06:30.909Z,43.33
2022-12-11T20:08:57.896Z,43.41
2022-12-11T20:11:24.331Z,43.45
2022-12-11T20:13:51.492Z,43.46
2022-12-11T20:16:33.318Z,43.36
2022-12-11T20:19:06.180Z,43.40
2022-12-11T20:21:32.687Z,43.20
2022-12-11T20:23:59.763Z,43.27
2022-12-11T20:26:26.270Z,43.28
2022-12-11T20:28:53.356Z,43.17
2022-12-11T20:31:21.354Z,43.22
2022-12-11T20:33:49.242Z,43.18
2022-12-11T20:36:17.261Z,43.31
2022-12-11T20:38:43.889Z,43.14
2022-12-11T20:41:11.823Z,43.08
2022-12-11T20:43:38.973Z,43.14
2022-12-11T20:46:09.863Z,43.20
2022-12-11T20:48:36.660Z,43.08
2022-12-11T20:51:04.188Z,42.94
2022-12-11T20:53:30.732Z,43.18
2022-12-11T20:55:57.194Z,43.10
2022-12-11T20:58:23.987Z,43.09
2022-12-11T21:00:50.436Z,43.31
2022-12-11T21:03:16.996Z,43.27
2022-12-11T21:05:44.199Z,43.18
2022-12-11T21:08:11.263Z,43.06
2022-12-11T21:10:41.589Z,43.31
2022-12-11T21:13:08.342Z,43.13
2022-12-11T21:15:38.203Z,43.13
2022-12-11T21:18:05.043Z,43.15
2022-12-11T21:20:31.606Z,43.15
2022-12-11T21:22:58.100Z,43.16
2022-12-11T21:25:24.992Z,43.20
2022-12-11T21:27:51.770Z,43.12
2022-12-11T21:30:18.922Z,43.29
2022-12-11T21:32:45.460Z,43.20
2022-12-11T21:35:12.573Z,43.29
2022-12-11T21:37:41.814Z,43.08
2022-12-11T21:40:09.144Z,43.20
2022-12-11T21:42:35.610Z,43.24
2022-12-11T21:47:50.201Z,43.22
2022-12-11T21:50:17.065Z,43.15
2022-12-11T21:52:44.072Z,43.11
2022-12-11T21:55:11.683Z,43.21
2022-12-11T21:57:38.327Z,43.12
2022-12-11T22:00:05.600Z,43.12
2022-12-11T22:02:35.990Z,43.18
2022-12-11T22:05:05.856Z,43.16
2022-12-11T22:07:32.447Z,43.03
2022-12-11T22:09:58.870Z,43.15
2022-12-11T22:12:26.511Z,43.14
2022-12-11T22:14:53.177Z,43.24
2022-12-11T22:17:19.693Z,43.16
2022-12-11T22:19:46.431Z,43.45
2022-12-11T22:22:13.677Z,43.49
2022-12-11T22:24:40.441Z,43.50
2022-12-11T22:27:06.989Z,43.67
2022-12-11T22:29:33.539Z,43.65
2022-12-11T22:32:00.073Z,43.84
2022-12-11T22:34:26.704Z,43.83
2022-12-11T22:36:53.272Z,43.76
2022-12-11T22:39:19.785Z,43.70
2022-12-11T22:41:46.298Z,43.87
2022-12-11T22:44:14.242Z,43.96
2022-12-11T22:46:44.149Z,43.95
2022-12-11T22:49:13.985Z,43.99
2022-12-11T22:51:40.481Z,41.71
2022-12-11T22:54:06.994Z,37.54
2022-12-11T22:56:33.579Z,38.57
2022-12-11T22:59:00.075Z,39.52
2022-12-11T23:01:27.822Z,39.73
2022-12-11T23:03:54.317Z,39.88
2022-12-11T23:06:22.063Z,39.87
2022-12-11T23:08:48.602Z,39.93
2022-12-11T23:11:16.883Z,39.98
2022-12-11T23:13:43.473Z,40.05
2022-12-11T23:16:11.784Z,40.01
2022-12-11T23:18:38.332Z,40.21
2022-12-11T23:21:05.146Z,40.21
2022-12-11T23:23:31.733Z,40.22
2022-12-11T23:25:58.403Z,40.21
2022-12-11T23:28:24.887Z,40.27
2022-12-11T23:30:51.361Z,40.28
2022-12-11T23:33:19.032Z,40.45
2022-12-11T23:35:45.509Z,40.33
2022-12-11T23:38:13.442Z,40.16
2022-12-11T23:40:39.938Z,40.31
2022-12-11T23:43:06.383Z,40.43
2022-12-11T23:45:32.918Z,40.45
2022-12-11T23:47:59.385Z,40.48
2022-12-11T23:50:26.106Z,40.58
2022-12-11T23:52:52.623Z,40.59
2022-12-11T23:55:19.382Z,40.63
2022-12-11T23:57:46.135Z,40.52
